sensor_id;sensor_type;location;lat;lon;timestamp;pressure;altitude;pressure_sealevel;temperature;humidity
19457;BME280;9867;48.094;11.478;2023-04-26T00:02:18;95077.28;;;4.99;100.00
19457;BME280;9867;48.094;11.478;2023-04-26T00:04:50;95068.13;;;4.90;100.00
19457;BME280;9867;48.094;11.478;2023-04-26T00:07:21;95074.75;;;4.99;100.00
19457;BME280;9867;48.094;11.478;2023-04-26T00:09:50;95062.97;;;5.06;100.00
19457;BME280;9867;48.094;11.478;2023-04-26T00:12:19;95063.16;;;4.97;100.00
19457;BME280;9867;48.094;11.478;2023-04-26T00:14:47;95061.75;;;4.94;100.00
19457;BME280;9867;48.094;11.478;2023-04-26T00:17:15;95060.44;;;4.98;100.00
19457;BME280;9867;48.094;11.478;2023-04-26T00:19:43;95066.53;;;4.89;100.00
19457;BME280;9867;48.094;11.478;2023-04-26T00:22:13;95056.06;;;4.84;100.00
19457;BME280;9867;48.094;11.478;2023-04-26T00:24:41;95057.78;;;4.92;100.00
19457;BME280;9867;48.094;11.478;2023-04-26T00:27:10;95057.94;;;4.90;100.00
19457;BME280;9867;48.094;11.478;2023-04-26T00:29:38;95064.28;;;4.94;100.00
19457;BME280;9867;48.094;11.478;2023-04-26T00:32:06;95063.03;;;4.90;100.00
19457;BME280;9867;48.094;11.478;2023-04-26T00:34:35;95060.44;;;4.98;100.00
19457;BME280;9867;48.094;11.478;2023-04-26T00:37:04;95058.84;;;4.97;100.00
19457;BME280;9867;48.094;11.478;2023-04-26T00:39:33;95051.88;;;4.99;100.00
19457;BME280;9867;48.094;11.478;2023-04-26T00:42:01;95063.91;;;5.13;100.00
19457;BME280;9867;48.094;11.478;2023-04-26T00:44:29;95070.44;;;5.08;100.00
19457;BME280;9867;48.094;11.478;2023-04-26T00:46:57;95070.97;;;4.95;100.00
19457;BME280;9867;48.094;11.478;2023-04-26T00:49:25;95070.28;;;5.09;100.00
19457;BME280;9867;48.094;11.478;2023-04-26T00:51:53;95062.91;;;5.23;100.00
19457;BME280;9867;48.094;11.478;2023-04-26T00:54:21;95080.59;;;5.08;100.00
19457;BME280;9867;48.094;11.478;2023-04-26T00:56:51;95073.78;;;5.00;100.00
19457;BME280;9867;48.094;11.478;2023-04-26T00:59:19;95072.41;;;4.90;100.00
19457;BME280;9867;48.094;11.478;2023-04-26T01:01:47;95072.38;;;4.98;100.00
19457;BME280;9867;48.094;11.478;2023-04-26T01:04:15;95073.44;;;5.20;100.00
19457;BME280;9867;48.094;11.478;2023-04-26T01:06:44;95081.72;;;5.05;100.00
19457;BME280;9867;48.094;11.478;2023-04-26T01:09:12;95083.16;;;5.08;100.00
19457;BME280;9867;48.094;11.478;2023-04-26T01:11:42;95074.28;;;5.43;100.00
19457;BME280;9867;48.094;11.478;2023-04-26T01:14:13;95078.63;;;5.26;100.00
19457;BME280;9867;48.094;11.478;2023-04-26T01:16:41;95079.69;;;5.40;100.00
19457;BME280;9867;48.094;11.478;2023-04-26T01:19:12;95085.31;;;5.27;100.00
19457;BME280;9867;48.094;11.478;2023-04-26T01:21:41;95092.09;;;4.79;100.00
19457;BME280;9867;48.094;11.478;2023-04-26T01:24:12;95086.22;;;4.87;100.00
19457;BME280;9867;48.094;11.478;2023-04-26T01:26:41;95094.28;;;4.99;100.00
19457;BME280;9867;48.094;11.478;2023-04-26T01:29:14;95096.16;;;5.13;100.00
19457;BME280;9867;48.094;11.478;2023-04-26T01:31:42;95096.56;;;4.86;100.00
19457;BME280;9867;48.094;11.478;2023-04-26T01:34:10;95101.13;;;4.98;100.00
19457;BME280;9867;48.094;11.478;2023-04-26T01:36:38;95096.50;;;5.02;100.00
19457;BME280;9867;48.094;11.478;2023-04-26T01:39:06;95089.13;;;5.23;100.00
19457;BME280;9867;48.094;11.478;2023-04-26T01:41:36;95093.59;;;5.21;100.00
19457;BME280;9867;48.094;11.478;2023-04-26T01:44:04;95099.13;;;5.25;100.00
19457;BME280;9867;48.094;11.478;2023-04-26T01:46:32;95103.06;;;4.80;100.00
19457;BME280;9867;48.094;11.478;2023-04-26T01:49:00;95105.94;;;4.77;100.00
19457;BME280;9867;48.094;11.478;2023-04-26T01:51:28;95106.72;;;4.77;100.00
19457;BME280;9867;48.094;11.478;2023-04-26T01:53:57;95101.16;;;4.82;100.00
19457;BME280;9867;48.094;11.478;2023-04-26T01:56:25;95106.56;;;4.79;100.00
19457;BME280;9867;48.094;11.478;2023-04-26T01:58:54;95105.63;;;4.72;100.00
19457;BME280;9867;48.094;11.478;2023-04-26T02:01:23;95115.03;;;4.47;100.00
19457;BME280;9867;48.094;11.478;2023-04-26T02:03:51;95113.59;;;4.20;100.00
19457;BME280;9867;48.094;11.478;2023-04-26T02:06:19;95106.59;;;4.22;100.00
19457;BME280;9867;48.094;11.478;2023-04-26T02:08:47;95108.50;;;4.12;100.00
19457;BME280;9867;48.094;11.478;2023-04-26T02:11:15;95104.06;;;4.47;100.00
19457;BME280;9867;48.094;11.478;2023-04-26T02:13:43;95098.66;;;4.66;100.00
19457;BME280;9867;48.094;11.478;2023-04-26T02:16:12;95090.25;;;4.57;100.00
19457;BME280;9867;48.094;11.478;2023-04-26T02:18:41;95095.16;;;4.59;100.00
19457;BME280;9867;48.094;11.478;2023-04-26T02:21:10;95091.16;;;4.72;100.00
19457;BME280;9867;48.094;11.478;2023-04-26T02:23:38;95094.22;;;4.60;100.00
19457;BME280;9867;48.094;11.478;2023-04-26T02:26:08;95096.41;;;4.79;100.00
19457;BME280;9867;48.094;11.478;2023-04-26T02:28:37;95093.38;;;4.84;100.00
19457;BME280;9867;48.094;11.478;2023-04-26T02:31:05;95106.34;;;5.05;100.00
19457;BME280;9867;48.094;11.478;2023-04-26T02:33:34;95107.84;;;4.75;100.00
19457;BME280;9867;48.094;11.478;2023-04-26T02:36:03;95091.16;;;4.72;100.00
19457;BME280;9867;48.094;11.478;2023-04-26T02:38:33;95093.53;;;4.74;100.00
19457;BME280;9867;48.094;11.478;2023-04-26T02:41:03;95093.38;;;4.84;100.00
19457;BME280;9867;48.094;11.478;2023-04-26T02:43:32;95093.31;;;5.00;100.00
19457;BME280;9867;48.094;11.478;2023-04-26T02:46:00;95094.00;;;4.94;100.00
19457;BME280;9867;48.094;11.478;2023-04-26T02:48:29;95100.00;;;5.09;100.00
19457;BME280;9867;48.094;11.478;2023-04-26T02:50:58;95105.13;;;4.76;100.00
19457;BME280;9867;48.094;11.478;2023-04-26T02:53:26;95093.22;;;4.85;100.00
19457;BME280;9867;48.094;11.478;2023-04-26T02:55:54;95083.06;;;4.77;100.00
19457;BME280;9867;48.094;11.478;2023-04-26T02:58:22;95085.38;;;5.03;100.00
19457;BME280;9867;48.094;11.478;2023-04-26T03:00:50;95091.09;;;4.97;100.00
19457;BME280;9867;48.094;11.478;2023-04-26T03:03:20;95093.25;;;4.61;100.00
19457;BME280;9867;48.094;11.478;2023-04-26T03:05:49;95090.41;;;4.56;100.00
19457;BME280;9867;48.094;11.478;2023-04-26T03:08:18;95098.97;;;4.63;100.00
19457;BME280;9867;48.094;11.478;2023-04-26T03:10:46;95090.41;;;4.64;100.00
19457;BME280;9867;48.094;11.478;2023-04-26T03:13:14;95094.97;;;4.85;100.00
19457;BME280;9867;48.094;11.478;2023-04-26T03:15:43;95097.69;;;4.59;100.00
19457;BME280;9867;48.094;11.478;2023-04-26T03:18:11;95099.75;;;4.55;100.00
19457;BME280;9867;48.094;11.478;2023-04-26T03:20:40;95110.75;;;4.48;100.00
19457;BME280;9867;48.094;11.478;2023-04-26T03:23:11;95098.50;;;4.35;100.00
19457;BME280;9867;48.094;11.478;2023-04-26T03:25:40;95092.31;;;4.54;100.00
19457;BME280;9867;48.094;11.478;2023-04-26T03:28:08;95095.50;;;4.39;100.00
19457;BME280;9867;48.094;11.478;2023-04-26T03:30:36;95085.00;;;4.67;100.00
19457;BME280;9867;48.094;11.478;2023-04-26T03:33:04;95104.66;;;4.73;100.00
19457;BME280;9867;48.094;11.478;2023-04-26T03:35:32;95106.78;;;4.45;100.00
19457;BME280;9867;48.094;11.478;2023-04-26T03:38:00;95106.94;;;4.43;100.00
19457;BME280;9867;48.094;11.478;2023-04-26T03:40:28;95107.34;;;4.88;100.00
19457;BME280;9867;48.094;11.478;2023-04-26T03:42:57;95103.00;;;5.04;100.00
19457;BME280;9867;48.094;11.478;2023-04-26T03:45:25;95112.00;;;5.23;100.00
19457;BME280;9867;48.094;11.478;2023-04-26T03:47:53;95105.88;;;5.09;100.00
19457;BME280;9867;48.094;11.478;2023-04-26T03:50:22;95101.59;;;5.02;100.00
19457;BME280;9867;48.094;11.478;2023-04-26T03:52:50;95111.44;;;5.13;100.00
19457;BME280;9867;48.094;11.478;2023-04-26T03:55:18;95116.03;;;5.09;100.00
19457;BME280;9867;48.094;11.478;2023-04-26T03:57:46;95122.88;;;5.01;100.00
19457;BME280;9867;48.094;11.478;2023-04-26T04:00:16;95111.28;;;4.98;100.00
19457;BME280;9867;48.094;11.478;2023-04-26T04:02:45;95112.06;;;5.15;100.00
19457;BME280;9867;48.094;11.478;2023-04-26T04:05:21;95108.56;;;5.16;100.00
19457;BME280;9867;48.094;11.478;2023-04-26T04:07:49;95113.59;;;5.24;100.00
19457;BME280;9867;48.094;11.478;2023-04-26T04:10:18;95108.91;;;5.05;100.00
19457;BME280;9867;48.094;11.478;2023-04-26T04:12:48;95116.69;;;5.03;100.00
19457;BME280;9867;48.094;11.478;2023-04-26T04:15:18;95115.56;;;5.14;100.00
19457;BME280;9867;48.094;11.478;2023-04-26T04:17:47;95118.66;;;5.32;100.00
19457;BME280;9867;48.094;11.478;2023-04-26T04:20:15;95116.78;;;5.26;100.00
19457;BME280;9867;48.094;11.478;2023-04-26T04:22:43;95124.72;;;5.31;100.00
19457;BME280;9867;48.094;11.478;2023-04-26T04:25:11;95119.63;;;5.23;100.00
19457;BME280;9867;48.094;11.478;2023-04-26T04:27:41;95121.38;;;5.31;100.00
19457;BME280;9867;48.094;11.478;2023-04-26T04:30:10;95126.94;;;5.26;100.00
19457;BME280;9867;48.094;11.478;2023-04-26T04:32:40;95136.47;;;5.40;100.00
19457;BME280;9867;48.094;11.478;2023-04-26T04:35:11;95135.50;;;5.41;100.00
19457;BME280;9867;48.094;11.478;2023-04-26T04:37:40;95136.94;;;5.36;100.00
19457;BME280;9867;48.094;11.478;2023-04-26T04:40:10;95138.47;;;5.53;100.00
19457;BME280;9867;48.094;11.478;2023-04-26T04:42:40;95156.16;;;5.38;100.00
19457;BME280;9867;48.094;11.478;2023-04-26T04:45:10;95144.78;;;5.18;100.00
19457;BME280;9867;48.094;11.478;2023-04-26T04:47:39;95147.34;;;5.18;100.00
19457;BME280;9867;48.094;11.478;2023-04-26T04:50:07;95152.22;;;5.28;100.00
19457;BME280;9867;48.094;11.478;2023-04-26T04:52:36;95143.16;;;5.33;100.00
19457;BME280;9867;48.094;11.478;2023-04-26T04:55:04;95155.25;;;5.23;100.00
19457;BME280;9867;48.094;11.478;2023-04-26T04:57:34;95147.91;;;5.28;100.00
19457;BME280;9867;48.094;11.478;2023-04-26T05:00:06;95160.41;;;5.46;100.00
19457;BME280;9867;48.094;11.478;2023-04-26T05:02:43;95163.09;;;5.61;100.00
19457;BME280;9867;48.094;11.478;2023-04-26T05:05:11;95170.25;;;5.57;100.00
19457;BME280;9867;48.094;11.478;2023-04-26T05:07:39;95157.84;;;5.54;100.00
19457;BME280;9867;48.094;11.478;2023-04-26T05:10:07;95171.13;;;5.72;100.00
19457;BME280;9867;48.094;11.478;2023-04-26T05:12:35;95182.09;;;5.34;100.00
19457;BME280;9867;48.094;11.478;2023-04-26T05:15:04;95175.31;;;5.02;100.00
19457;BME280;9867;48.094;11.478;2023-04-26T05:17:32;95176.91;;;4.78;100.00
19457;BME280;9867;48.094;11.478;2023-04-26T05:20:12;95173.56;;;5.19;100.00
19457;BME280;9867;48.094;11.478;2023-04-26T05:22:40;95166.88;;;5.09;100.00
19457;BME280;9867;48.094;11.478;2023-04-26T05:25:09;95173.50;;;5.35;100.00
19457;BME280;9867;48.094;11.478;2023-04-26T05:27:38;95179.19;;;5.45;100.00
19457;BME280;9867;48.094;11.478;2023-04-26T05:30:14;95182.25;;;5.24;100.00
19457;BME280;9867;48.094;11.478;2023-04-26T05:33:02;95177.53;;;5.13;100.00
19457;BME280;9867;48.094;11.478;2023-04-26T05:35:40;95177.13;;;5.48;100.00
19457;BME280;9867;48.094;11.478;2023-04-26T05:38:08;95187.31;;;5.40;100.00
19457;BME280;9867;48.094;11.478;2023-04-26T05:40:36;95187.16;;;5.42;100.00
19457;BME280;9867;48.094;11.478;2023-04-26T05:43:04;95186.06;;;5.28;100.00
19457;BME280;9867;48.094;11.478;2023-04-26T05:45:34;95196.25;;;5.20;100.00
19457;BME280;9867;48.094;11.478;2023-04-26T05:48:02;95186.53;;;5.40;100.00
19457;BME280;9867;48.094;11.478;2023-04-26T05:50:30;95187.97;;;5.26;100.00
19457;BME280;9867;48.094;11.478;2023-04-26T05:53:00;95186.78;;;5.61;100.00
19457;BME280;9867;48.094;11.478;2023-04-26T05:55:28;95188.63;;;5.75;100.00
19457;BME280;9867;48.094;11.478;2023-04-26T05:57:56;95204.34;;;5.87;100.00
19457;BME280;9867;48.094;11.478;2023-04-26T06:00:24;95195.25;;;5.93;100.00
19457;BME280;9867;48.094;11.478;2023-04-26T06:02:52;95193.66;;;6.00;100.00
19457;BME280;9867;48.094;11.478;2023-04-26T06:05:20;95204.31;;;5.95;100.00
19457;BME280;9867;48.094;11.478;2023-04-26T06:07:49;95213.19;;;5.60;100.00
19457;BME280;9867;48.094;11.478;2023-04-26T06:10:18;95202.47;;;5.73;100.00
19457;BME280;9867;48.094;11.478;2023-04-26T06:12:46;95216.78;;;5.82;100.00
19457;BME280;9867;48.094;11.478;2023-04-26T06:15:15;95215.81;;;5.83;100.00
19457;BME280;9867;48.094;11.478;2023-04-26T06:17:43;95223.94;;;5.78;100.00
19457;BME280;9867;48.094;11.478;2023-04-26T06:20:11;95219.25;;;6.06;100.00
19457;BME280;9867;48.094;11.478;2023-04-26T06:22:39;95224.84;;;5.94;100.00
19457;BME280;9867;48.094;11.478;2023-04-26T06:25:08;95224.41;;;5.90;100.00
19457;BME280;9867;48.094;11.478;2023-04-26T06:27:38;95234.13;;;5.70;100.00
19457;BME280;9867;48.094;11.478;2023-04-26T06:30:08;95221.84;;;5.82;100.00
19457;BME280;9867;48.094;11.478;2023-04-26T06:32:40;95228.53;;;5.91;100.00
19457;BME280;9867;48.094;11.478;2023-04-26T06:35:09;95223.88;;;6.03;100.00
19457;BME280;9867;48.094;11.478;2023-04-26T06:37:37;95228.88;;;6.19;100.00
19457;BME280;9867;48.094;11.478;2023-04-26T06:40:07;95227.91;;;6.20;100.00
19457;BME280;9867;48.094;11.478;2023-04-26T06:42:36;95229.34;;;6.23;100.00
19457;BME280;9867;48.094;11.478;2023-04-26T06:45:18;95227.47;;;6.47;100.00
19457;BME280;9867;48.094;11.478;2023-04-26T06:47:50;95234.00;;;6.42;100.00
19457;BME280;9867;48.094;11.478;2023-04-26T06:50:22;95234.44;;;6.76;100.00
19457;BME280;9867;48.094;11.478;2023-04-26T06:52:50;95226.66;;;6.70;100.00
19457;BME280;9867;48.094;11.478;2023-04-26T06:55:18;95237.19;;;6.90;100.00
19457;BME280;9867;48.094;11.478;2023-04-26T06:57:46;95233.94;;;7.18;100.00
19457;BME280;9867;48.094;11.478;2023-04-26T07:00:14;95234.50;;;7.43;100.00
19457;BME280;9867;48.094;11.478;2023-04-26T07:02:44;95231.97;;;7.43;100.00
19457;BME280;9867;48.094;11.478;2023-04-26T07:05:12;95232.59;;;7.75;100.00
19457;BME280;9867;48.094;11.478;2023-04-26T07:07:41;95240.97;;;7.69;100.00
19457;BME280;9867;48.094;11.478;2023-04-26T07:10:09;95246.34;;;7.74;100.00
19457;BME280;9867;48.094;11.478;2023-04-26T07:12:37;95243.97;;;8.02;100.00
19457;BME280;9867;48.094;11.478;2023-04-26T07:15:07;95238.31;;;7.92;100.00
19457;BME280;9867;48.094;11.478;2023-04-26T07:17:35;95241.47;;;8.08;100.00
19457;BME280;9867;48.094;11.478;2023-04-26T07:20:05;95247.63;;;8.14;100.00
19457;BME280;9867;48.094;11.478;2023-04-26T07:22:33;95253.00;;;7.60;100.00
19457;BME280;9867;48.094;11.478;2023-04-26T07:25:01;95260.94;;;7.65;100.00
19457;BME280;9867;48.094;11.478;2023-04-26T07:27:31;95248.00;;;7.96;100.00
19457;BME280;9867;48.094;11.478;2023-04-26T07:29:58;95252.53;;;8.30;100.00
19457;BME280;9867;48.094;11.478;2023-04-26T07:32:26;95251.00;;;8.86;100.00
19457;BME280;9867;48.094;11.478;2023-04-26T07:34:54;95242.69;;;9.55;100.00
19457;BME280;9867;48.094;11.478;2023-04-26T07:37:24;95248.63;;;9.97;100.00
19457;BME280;9867;48.094;11.478;2023-04-26T07:39:51;95248.44;;;9.08;100.00
19457;BME280;9867;48.094;11.478;2023-04-26T07:42:19;95247.78;;;9.27;100.00
19457;BME280;9867;48.094;11.478;2023-04-26T07:44:47;95241.75;;;9.35;100.00
19457;BME280;9867;48.094;11.478;2023-04-26T07:47:15;95240.66;;;8.95;100.00
19457;BME280;9867;48.094;11.478;2023-04-26T07:49:43;95237.16;;;8.09;100.00
19457;BME280;9867;48.094;11.478;2023-04-26T07:52:13;95244.22;;;9.00;100.00
19457;BME280;9867;48.094;11.478;2023-04-26T07:54:44;95239.44;;;9.40;100.00
19457;BME280;9867;48.094;11.478;2023-04-26T07:57:12;95247.25;;;9.32;100.00
19457;BME280;9867;48.094;11.478;2023-04-26T07:59:40;95242.38;;;9.71;100.00
19457;BME280;9867;48.094;11.478;2023-04-26T08:02:08;95234.13;;;9.76;100.00
19457;BME280;9867;48.094;11.478;2023-04-26T08:04:36;95235.03;;;9.96;100.00
19457;BME280;9867;48.094;11.478;2023-04-26T08:07:04;95239.81;;;10.06;100.00
19457;BME280;9867;48.094;11.478;2023-04-26T08:09:32;95242.34;;;9.99;100.00
19457;BME280;9867;48.094;11.478;2023-04-26T08:12:03;95236.03;;;10.43;100.00
19457;BME280;9867;48.094;11.478;2023-04-26T08:14:31;95237.72;;;10.83;100.00
19457;BME280;9867;48.094;11.478;2023-04-26T08:17:01;95238.56;;;9.95;100.00
19457;BME280;9867;48.094;11.478;2023-04-26T08:19:29;95235.66;;;10.05;100.00
19457;BME280;9867;48.094;11.478;2023-04-26T08:21:58;95240.22;;;10.09;100.00
19457;BME280;9867;48.094;11.478;2023-04-26T08:24:26;95239.50;;;9.81;100.00
19457;BME280;9867;48.094;11.478;2023-04-26T08:26:54;95244.84;;;9.86;100.00
19457;BME280;9867;48.094;11.478;2023-04-26T08:29:25;95232.88;;;10.41;100.00
19457;BME280;9867;48.094;11.478;2023-04-26T08:31:53;95238.09;;;10.87;100.00
19457;BME280;9867;48.094;11.478;2023-04-26T08:34:21;95241.19;;;10.49;100.00
19457;BME280;9867;48.094;11.478;2023-04-26T08:36:49;95241.47;;;10.20;100.00
19457;BME280;9867;48.094;11.478;2023-04-26T08:39:17;95230.53;;;9.70;100.00
19457;BME280;9867;48.094;11.478;2023-04-26T08:41:48;95239.16;;;9.97;100.00
19457;BME280;9867;48.094;11.478;2023-04-26T08:44:20;95230.78;;;10.10;100.00
19457;BME280;9867;48.094;11.478;2023-04-26T08:46:56;95230.75;;;10.64;100.00
19457;BME280;9867;48.094;11.478;2023-04-26T08:49:34;95230.53;;;10.39;100.00
19457;BME280;9867;48.094;11.478;2023-04-26T08:52:08;95228.06;;;11.05;100.00
19457;BME280;9867;48.094;11.478;2023-04-26T08:54:38;95236.19;;;11.28;100.00
19457;BME280;9867;48.094;11.478;2023-04-26T08:57:06;95238.13;;;11.13;100.00
19457;BME280;9867;48.094;11.478;2023-04-26T08:59:35;95228.75;;;10.46;100.00
19457;BME280;9867;48.094;11.478;2023-04-26T09:02:05;95239.16;;;10.32;100.00
19457;BME280;9867;48.094;11.478;2023-04-26T09:04:34;95243.53;;;10.03;100.00
19457;BME280;9867;48.094;11.478;2023-04-26T09:07:03;95249.56;;;9.27;100.00
19457;BME280;9867;48.094;11.478;2023-04-26T09:09:34;95248.75;;;9.26;100.00
19457;BME280;9867;48.094;11.478;2023-04-26T09:12:03;95248.97;;;9.52;100.00
19457;BME280;9867;48.094;11.478;2023-04-26T09:14:31;95249.91;;;8.96;100.00
19457;BME280;9867;48.094;11.478;2023-04-26T09:16:59;95246.53;;;9.16;100.00
19457;BME280;9867;48.094;11.478;2023-04-26T09:19:35;95235.16;;;9.19;100.00
19457;BME280;9867;48.094;11.478;2023-04-26T09:22:03;95244.34;;;9.13;100.00
19457;BME280;9867;48.094;11.478;2023-04-26T09:24:48;95242.28;;;9.02;100.00
19457;BME280;9867;48.094;11.478;2023-04-26T09:27:16;95237.81;;;9.11;100.00
19457;BME280;9867;48.094;11.478;2023-04-26T09:29:57;95242.63;;;9.48;100.00
19457;BME280;9867;48.094;11.478;2023-04-26T09:32:26;95225.53;;;9.21;100.00
19457;BME280;9867;48.094;11.478;2023-04-26T09:34:56;95239.47;;;9.18;100.00
19457;BME280;9867;48.094;11.478;2023-04-26T09:37:23;95239.81;;;9.37;100.00
19457;BME280;9867;48.094;11.478;2023-04-26T09:39:51;95245.38;;;9.19;100.00
19457;BME280;9867;48.094;11.478;2023-04-26T09:42:19;95237.28;;;9.15;100.00
19457;BME280;9867;48.094;11.478;2023-04-26T09:44:47;95239.91;;;9.01;100.00
19457;BME280;9867;48.094;11.478;2023-04-26T09:47:15;95236.78;;;9.05;100.00
19457;BME280;9867;48.094;11.478;2023-04-26T09:49:46;95247.66;;;8.86;100.00
19457;BME280;9867;48.094;11.478;2023-04-26T09:52:17;95246.09;;;8.49;100.00
19457;BME280;9867;48.094;11.478;2023-04-26T09:54:47;95248.78;;;7.82;100.00
19457;BME280;9867;48.094;11.478;2023-04-26T09:57:16;95240.69;;;7.93;100.00
19457;BME280;9867;48.094;11.478;2023-04-26T09:59:46;95249.97;;;7.79;100.00
19457;BME280;9867;48.094;11.478;2023-04-26T10:02:19;95244.47;;;7.68;100.00
19457;BME280;9867;48.094;11.478;2023-04-26T10:04:49;95235.81;;;8.13;100.00
19457;BME280;9867;48.094;11.478;2023-04-26T10:07:21;95246.56;;;8.23;100.00
19457;BME280;9867;48.094;11.478;2023-04-26T10:09:49;95232.34;;;8.50;100.00
19457;BME280;9867;48.094;11.478;2023-04-26T10:12:18;95229.13;;;8.63;100.00
19457;BME280;9867;48.094;11.478;2023-04-26T10:14:47;95226.88;;;8.74;100.00
19457;BME280;9867;48.094;11.478;2023-04-26T10:17:15;95225.97;;;9.31;100.00
19457;BME280;9867;48.094;11.478;2023-04-26T10:19:47;95221.94;;;9.22;100.00
19457;BME280;9867;48.094;11.478;2023-04-26T10:22:20;95217.34;;;9.67;100.00
19457;BME280;9867;48.094;11.478;2023-04-26T10:24:48;95220.16;;;9.78;100.00
19457;BME280;9867;48.094;11.478;2023-04-26T10:27:51;95209.50;;;9.75;100.00
19457;BME280;9867;48.094;11.478;2023-04-26T10:30:20;95208.28;;;10.05;100.00
19457;BME280;9867;48.094;11.478;2023-04-26T10:33:13;95208.41;;;9.90;100.00
19457;BME280;9867;48.094;11.478;2023-04-26T10:36:03;95216.78;;;10.73;100.00
19457;BME280;9867;48.094;11.478;2023-04-26T10:38:34;95211.00;;;10.51;100.00
19457;BME280;9867;48.094;11.478;2023-04-26T10:41:27;95204.75;;;10.93;100.00
19457;BME280;9867;48.094;11.478;2023-04-26T10:43:56;95202.00;;;11.02;100.00
19457;BME280;9867;48.094;11.478;2023-04-26T10:46:38;95188.56;;;10.86;100.00
19457;BME280;9867;48.094;11.478;2023-04-26T10:49:16;95193.69;;;11.46;100.00
19457;BME280;9867;48.094;11.478;2023-04-26T10:52:07;95194.66;;;11.38;100.00
19457;BME280;9867;48.094;11.478;2023-04-26T10:54:50;95179.69;;;11.22;100.00
19457;BME280;9867;48.094;11.478;2023-04-26T10:57:19;95185.81;;;11.21;100.00
19457;BME280;9867;48.094;11.478;2023-04-26T11:00:19;95173.38;;;10.85;100.00
19457;BME280;9867;48.094;11.478;2023-04-26T11:02:58;95184.22;;;10.93;100.00
19457;BME280;9867;48.094;11.478;2023-04-26T11:05:53;95175.13;;;10.98;100.00
19457;BME280;9867;48.094;11.478;2023-04-26T11:08:28;95170.41;;;10.75;100.00
19457;BME280;9867;48.094;11.478;2023-04-26T11:11:10;95166.25;;;10.74;100.00
19457;BME280;9867;48.094;11.478;2023-04-26T11:13:40;95164.81;;;11.44;100.00
19457;BME280;9867;48.094;11.478;2023-04-26T11:16:11;95157.63;;;11.85;100.00
19457;BME280;9867;48.094;11.478;2023-04-26T11:18:41;95154.09;;;12.56;100.00
19457;BME280;9867;48.094;11.478;2023-04-26T11:21:18;95154.94;;;12.12;97.77
19457;BME280;9867;48.094;11.478;2023-04-26T11:23:54;95153.41;;;11.13;85.13
19457;BME280;9867;48.094;11.478;2023-04-26T11:26:31;95148.47;;;11.12;87.54
19457;BME280;9867;48.094;11.478;2023-04-26T11:28:59;95151.28;;;11.88;81.76
19457;BME280;9867;48.094;11.478;2023-04-26T11:31:29;95143.81;;;12.24;85.75
19457;BME280;9867;48.094;11.478;2023-04-26T11:34:02;95145.69;;;11.33;79.97
19457;BME280;9867;48.094;11.478;2023-04-26T11:36:30;95150.53;;;11.68;87.63
19457;BME280;9867;48.094;11.478;2023-04-26T11:38:59;95143.72;;;11.28;82.29
19457;BME280;9867;48.094;11.478;2023-04-26T11:41:29;95150.44;;;11.16;87.84
19457;BME280;9867;48.094;11.478;2023-04-26T11:43:58;95146.50;;;11.34;92.97
19457;BME280;9867;48.094;11.478;2023-04-26T11:46:26;95148.38;;;11.65;100.00
19457;BME280;9867;48.094;11.478;2023-04-26T11:48:54;95146.63;;;12.10;100.00
19457;BME280;9867;48.094;11.478;2023-04-26T11:51:22;95157.59;;;11.99;91.23
19457;BME280;9867;48.094;11.478;2023-04-26T11:53:52;95155.47;;;11.69;93.69
19457;BME280;9867;48.094;11.478;2023-04-26T11:56:20;95155.19;;;11.00;100.00
19457;BME280;9867;48.094;11.478;2023-04-26T11:58:50;95162.50;;;10.76;100.00
19457;BME280;9867;48.094;11.478;2023-04-26T12:01:20;95153.41;;;11.26;100.00
19457;BME280;9867;48.094;11.478;2023-04-26T12:03:49;95163.06;;;11.11;97.88
19457;BME280;9867;48.094;11.478;2023-04-26T12:06:18;95146.66;;;11.39;95.10
19457;BME280;9867;48.094;11.478;2023-04-26T12:08:49;95150.59;;;11.48;91.29
19457;BME280;9867;48.094;11.478;2023-04-26T12:11:18;95158.69;;;12.16;100.00
19457;BME280;9867;48.094;11.478;2023-04-26T12:13:46;95152.91;;;12.83;91.53
19457;BME280;9867;48.094;11.478;2023-04-26T12:16:16;95151.75;;;13.04;87.08
19457;BME280;9867;48.094;11.478;2023-04-26T12:18:52;95148.84;;;12.44;77.62
19457;BME280;9867;48.094;11.478;2023-04-26T12:21:21;95153.16;;;13.31;76.40
19457;BME280;9867;48.094;11.478;2023-04-26T12:23:49;95159.81;;;12.89;75.23
19457;BME280;9867;48.094;11.478;2023-04-26T12:26:17;95165.03;;;12.76;75.14
19457;BME280;9867;48.094;11.478;2023-04-26T12:28:45;95154.81;;;12.38;81.37
19457;BME280;9867;48.094;11.478;2023-04-26T12:31:13;95158.06;;;12.52;70.25
19457;BME280;9867;48.094;11.478;2023-04-26T12:33:43;95163.13;;;12.34;70.62
19457;BME280;9867;48.094;11.478;2023-04-26T12:36:11;95164.94;;;11.82;62.22
19457;BME280;9867;48.094;11.478;2023-04-26T12:38:39;95146.44;;;12.11;71.60
19457;BME280;9867;48.094;11.478;2023-04-26T12:41:07;95153.31;;;11.66;79.92
19457;BME280;9867;48.094;11.478;2023-04-26T12:43:35;95159.81;;;11.75;82.98
19457;BME280;9867;48.094;11.478;2023-04-26T12:46:03;95156.88;;;11.65;87.55
19457;BME280;9867;48.094;11.478;2023-04-26T12:48:31;95134.63;;;12.04;79.40
19457;BME280;9867;48.094;11.478;2023-04-26T12:51:00;95124.56;;;12.65;67.53
19457;BME280;9867;48.094;11.478;2023-04-26T12:53:28;95138.88;;;12.54;84.99
19457;BME280;9867;48.094;11.478;2023-04-26T12:55:56;95144.94;;;12.35;100.00
19457;BME280;9867;48.094;11.478;2023-04-26T12:58:24;95134.97;;;12.07;89.67
19457;BME280;9867;48.094;11.478;2023-04-26T13:00:52;95143.22;;;11.71;96.07
19457;BME280;9867;48.094;11.478;2023-04-26T13:03:20;95159.63;;;11.70;95.28
19457;BME280;9867;48.094;11.478;2023-04-26T13:05:48;95140.63;;;11.84;95.32
19457;BME280;9867;48.094;11.478;2023-04-26T13:08:17;95137.03;;;12.30;83.77
19457;BME280;9867;48.094;11.478;2023-04-26T13:10:45;95127.91;;;12.90;81.64
19457;BME280;9867;48.094;11.478;2023-04-26T13:13:13;95121.38;;;14.22;79.37
19457;BME280;9867;48.094;11.478;2023-04-26T13:15:41;95111.97;;;14.58;61.63